Time;durP1;ratioP1;P1;durP2;ratioP2;P2;SDS_P1;SDS_P2;PMS_P1;PMS_P2;Temp;Humidity;BMP_temperature;BMP_pressure;BME280_temperature;BME280_humidity;BME280_pressure;Samples;Min_cycle;Max_cycle;Signal;HPM_P1;HPM_P2
2022/08/23 00:00:12;;;;;;;24.03;22.73;;;;;;;;;;5032935;28;20425;-83
2022/08/23 00:02:39;;;;;;;25.17;23.33;;;;;;;;;;5032622;28;20449;-82
2022/08/23 00:05:07;;;;;;;24.30;22.80;;;;;;;;;;5032629;28;20413;-83
2022/08/23 00:07:36;;;;;;;24.00;22.43;;;;;;;;;;5032426;28;20454;-82
2022/08/23 00:10:03;;;;;;;24.27;22.60;;;;;;;;;;5032936;28;20445;-83
2022/08/23 00:12:31;;;;;;;24.30;22.90;;;;;;;;;;5015115;28;20447;-83
2022/08/23 00:14:58;;;;;;;24.33;22.63;;;;;;;;;;5032567;28;20468;-83
2022/08/23 00:17:26;;;;;;;24.03;22.53;;;;;;;;;;5032662;28;20465;-82
2022/08/23 00:19:53;;;;;;;24.43;22.77;;;;;;;;;;5032339;28;20421;-83
2022/08/23 00:22:20;;;;;;;23.63;22.17;;;;;;;;;;5032749;28;20450;-83
2022/08/23 00:24:49;;;;;;;24.83;23.33;;;;;;;;;;5014705;28;20483;-82
2022/08/23 00:27:17;;;;;;;25.27;23.30;;;;;;;;;;5032600;28;20413;-83
2022/08/23 00:29:46;;;;;;;23.90;22.50;;;;;;;;;;5032375;28;20453;-83
2022/08/23 00:32:14;;;;;;;24.20;22.80;;;;;;;;;;5033393;28;20445;-81
2022/08/23 00:34:42;;;;;;;24.20;22.70;;;;;;;;;;5036128;28;20808;-82
2022/08/23 00:37:11;;;;;;;24.00;22.53;;;;;;;;;;5036093;28;20486;-82
2022/08/23 00:39:39;;;;;;;23.73;22.10;;;;;;;;;;5036359;28;20522;-81
2022/08/23 00:47:41;;;;;;;25.57;22.97;;;;;;;;;;5035992;28;20413;-82
2022/08/23 00:50:13;;;;;;;24.27;22.77;;;;;;;;;;5035836;28;20421;-83
2022/08/23 00:52:42;;;;;;;23.67;22.20;;;;;;;;;;5036060;28;20450;-82
2022/08/23 00:55:10;;;;;;;24.70;23.20;;;;;;;;;;5035976;28;20447;-82
2022/08/23 00:57:39;;;;;;;23.77;22.20;;;;;;;;;;5035795;28;20504;-83
2022/08/23 01:00:08;;;;;;;24.67;22.97;;;;;;;;;;5035876;28;20836;-83
2022/08/23 01:02:36;;;;;;;24.17;22.77;;;;;;;;;;5035880;28;20409;-82
2022/08/23 01:05:05;;;;;;;23.40;22.10;;;;;;;;;;5035894;28;20464;-83
2022/08/23 01:07:37;;;;;;;23.60;22.20;;;;;;;;;;5035794;28;20468;-82
2022/08/23 01:10:08;;;;;;;24.67;23.27;;;;;;;;;;5035763;28;20447;-83
2022/08/23 01:12:37;;;;;;;25.33;23.77;;;;;;;;;;5035809;28;20426;-82
2022/08/23 01:15:08;;;;;;;23.83;22.40;;;;;;;;;;5035513;28;20483;-82
2022/08/23 01:17:37;;;;;;;24.40;22.80;;;;;;;;;;5035163;28;20506;-81
2022/08/23 01:20:07;;;;;;;24.77;23.07;;;;;;;;;;5035518;28;20409;-83
2022/08/23 01:22:37;;;;;;;23.50;22.10;;;;;;;;;;5035586;28;20414;-82
2022/08/23 01:25:07;;;;;;;23.97;22.57;;;;;;;;;;5017408;28;20418;-83
2022/08/23 01:27:35;;;;;;;23.90;22.30;;;;;;;;;;5035108;28;20455;-83
2022/08/23 01:30:04;;;;;;;23.63;22.07;;;;;;;;;;5035157;28;20795;-83
2022/08/23 01:32:31;;;;;;;24.20;22.77;;;;;;;;;;5035422;28;20464;-83
2022/08/23 01:34:59;;;;;;;23.50;22.20;;;;;;;;;;5035366;28;20474;-82
2022/08/23 01:37:27;;;;;;;23.73;22.43;;;;;;;;;;5035230;28;20468;-83
2022/08/23 01:39:54;;;;;;;23.97;22.47;;;;;;;;;;5035244;28;20883;-82
2022/08/23 01:42:23;;;;;;;23.30;21.90;;;;;;;;;;5035004;28;20422;-83
2022/08/23 01:44:51;;;;;;;23.33;21.70;;;;;;;;;;5034676;28;20417;-83
2022/08/23 01:47:18;;;;;;;24.50;23.10;;;;;;;;;;5034716;28;20428;-83
2022/08/23 01:49:45;;;;;;;24.23;22.53;;;;;;;;;;5035148;28;20413;-83
2022/08/23 01:52:14;;;;;;;24.20;22.70;;;;;;;;;;5034844;28;20779;-83
2022/08/23 01:54:41;;;;;;;24.40;22.90;;;;;;;;;;5035000;28;20420;-83
2022/08/23 01:57:09;;;;;;;25.07;23.47;;;;;;;;;;5034499;28;20482;-82
2022/08/23 01:59:38;;;;;;;23.70;22.20;;;;;;;;;;5034804;28;20436;-82
2022/08/23 02:02:05;;;;;;;23.90;22.40;;;;;;;;;;5034895;28;20442;-83
2022/08/23 02:04:33;;;;;;;23.90;22.50;;;;;;;;;;5034698;28;20440;-83
2022/08/23 02:07:00;;;;;;;23.90;22.37;;;;;;;;;;5034289;28;20822;-83
2022/08/23 02:09:27;;;;;;;23.43;22.13;;;;;;;;;;5034537;28;20418;-83
2022/08/23 02:11:55;;;;;;;23.93;22.00;;;;;;;;;;5034366;28;20449;-83
2022/08/23 02:14:22;;;;;;;23.53;22.13;;;;;;;;;;5034368;28;20409;-83
2022/08/23 02:16:52;;;;;;;22.97;21.43;;;;;;;;;;5034578;28;20472;-82
2022/08/23 02:19:20;;;;;;;22.77;21.37;;;;;;;;;;5034371;28;20421;-83
2022/08/23 02:21:48;;;;;;;23.97;22.47;;;;;;;;;;5034361;28;20441;-82
2022/08/23 02:24:16;;;;;;;22.80;21.50;;;;;;;;;;5016981;28;20447;-83
2022/08/23 02:26:46;;;;;;;23.57;22.17;;;;;;;;;;5033904;28;20447;-83
2022/08/23 02:29:14;;;;;;;23.53;22.23;;;;;;;;;;5034368;28;20438;-82
2022/08/23 02:31:43;;;;;;;23.83;22.47;;;;;;;;;;5034009;28;20787;-83
2022/08/23 02:34:12;;;;;;;24.40;22.90;;;;;;;;;;5033961;28;20881;-83
2022/08/23 02:36:39;;;;;;;23.53;22.10;;;;;;;;;;5033832;28;20936;-83
2022/08/23 02:39:08;;;;;;;23.40;22.10;;;;;;;;;;5034012;28;20462;-83
2022/08/23 02:41:36;;;;;;;23.50;22.20;;;;;;;;;;5033601;28;20839;-82
2022/08/23 02:44:04;;;;;;;23.70;22.30;;;;;;;;;;5016032;28;20459;-83
2022/08/23 02:46:31;;;;;;;23.50;22.30;;;;;;;;;;5034257;28;20447;-83
2022/08/23 02:48:59;;;;;;;23.17;21.77;;;;;;;;;;5033749;28;20446;-83
2022/08/23 02:51:27;;;;;;;23.90;22.60;;;;;;;;;;5033765;28;20420;-82
2022/08/23 02:53:55;;;;;;;23.07;21.63;;;;;;;;;;5034035;28;20439;-83
2022/08/23 02:56:23;;;;;;;25.07;23.60;;;;;;;;;;5032850;28;20932;-83
2022/08/23 02:58:50;;;;;;;24.90;23.27;;;;;;;;;;5033618;28;20502;-82
2022/08/23 03:01:18;;;;;;;24.60;23.20;;;;;;;;;;5033417;28;20926;-83
2022/08/23 03:03:46;;;;;;;24.07;22.67;;;;;;;;;;5033710;28;20442;-83
2022/08/23 03:06:13;;;;;;;24.40;23.00;;;;;;;;;;5033415;28;20937;-83
2022/08/23 03:08:42;;;;;;;23.90;22.50;;;;;;;;;;5033395;28;20928;-83
2022/08/23 03:11:12;;;;;;;24.00;22.53;;;;;;;;;;5033711;28;20424;-82
2022/08/23 03:13:40;;;;;;;23.57;22.27;;;;;;;;;;5033522;28;20846;-83
2022/08/23 03:16:08;;;;;;;23.07;21.77;;;;;;;;;;5033059;28;20493;-83
2022/08/23 03:18:35;;;;;;;23.27;21.73;;;;;;;;;;5033359;28;20525;-83
2022/08/23 03:21:03;;;;;;;24.47;22.97;;;;;;;;;;5033128;28;20412;-83
2022/08/23 03:23:31;;;;;;;23.87;22.27;;;;;;;;;;5033070;28;20439;-83
2022/08/23 03:26:00;;;;;;;23.43;22.03;;;;;;;;;;5033014;28;20447;-82
2022/08/23 03:28:28;;;;;;;23.53;22.13;;;;;;;;;;5033285;28;20428;-82
2022/08/23 03:30:56;;;;;;;23.53;22.13;;;;;;;;;;5033355;28;20451;-82
2022/08/23 03:33:24;;;;;;;23.40;21.80;;;;;;;;;;5033208;28;20440;-82
2022/08/23 03:35:51;;;;;;;23.60;22.20;;;;;;;;;;5032895;28;20936;-82
2022/08/23 03:38:19;;;;;;;24.57;23.07;;;;;;;;;;5015104;28;20501;-83
2022/08/23 03:40:51;;;;;;;23.53;22.13;;;;;;;;;;5032898;28;20483;-82
2022/08/23 03:43:20;;;;;;;23.13;21.83;;;;;;;;;;5033139;28;20449;-83
2022/08/23 03:45:47;;;;;;;23.50;21.80;;;;;;;;;;5032792;28;20420;-82
2022/08/23 03:48:15;;;;;;;23.27;21.87;;;;;;;;;;5033263;28;20446;-82
2022/08/23 03:50:42;;;;;;;394.17;319.55;;;;;;;;;;5033261;28;20540;-83
2022/08/23 03:53:10;;;;;;;22.77;21.47;;;;;;;;;;5032801;28;20204;-83
2022/08/23 03:55:37;;;;;;;22.77;21.17;;;;;;;;;;5032780;28;20491;-83
2022/08/23 03:58:05;;;;;;;23.20;21.80;;;;;;;;;;5032487;28;20473;-83
2022/08/23 04:00:33;;;;;;;23.40;21.97;;;;;;;;;;5032842;28;20419;-83
2022/08/23 04:03:01;;;;;;;23.10;21.70;;;;;;;;;;5032564;28;20470;-83
2022/08/23 04:05:28;;;;;;;23.37;21.93;;;;;;;;;;5032817;28;20450;-84
2022/08/23 04:07:55;;;;;;;23.43;22.00;;;;;;;;;;5034839;28;20441;-81
2022/08/23 04:10:23;;;;;;;23.67;22.23;;;;;;;;;;5037054;28;20815;-83
2022/08/23 04:12:51;;;;;;;23.43;22.03;;;;;;;;;;5036909;28;20446;-83
2022/08/23 04:15:19;;;;;;;24.07;22.20;;;;;;;;;;5036793;28;20464;-82
2022/08/23 04:17:48;;;;;;;23.93;22.43;;;;;;;;;;5036539;28;20906;-82
2022/08/23 04:20:15;;;;;;;23.50;22.20;;;;;;;;;;5036771;28;20914;-83
2022/08/23 04:22:43;;;;;;;23.63;22.33;;;;;;;;;;5036444;28;20467;-82
2022/08/23 04:25:10;;;;;;;25.27;23.63;;;;;;;;;;5036311;28;20476;-82
2022/08/23 04:27:38;;;;;;;24.37;22.97;;;;;;;;;;5036160;28;20432;-83
2022/08/23 04:30:06;;;;;;;23.87;22.57;;;;;;;;;;5036487;28;20416;-83
2022/08/23 04:32:33;;;;;;;24.83;23.13;;;;;;;;;;5036592;28;20432;-82
2022/08/23 04:35:02;;;;;;;24.00;22.50;;;;;;;;;;5036454;28;20445;-83
2022/08/23 04:37:30;;;;;;;24.47;22.87;;;;;;;;;;5036025;28;20485;-83
2022/08/23 04:42:42;;;;;;;23.63;22.23;;;;;;;;;;5036224;28;20446;-83
2022/08/23 04:45:10;;;;;;;23.53;22.20;;;;;;;;;;5036045;28;20940;-83
2022/08/23 04:47:39;;;;;;;23.40;22.07;;;;;;;;;;5036040;28;20457;-83
2022/08/23 04:50:08;;;;;;;23.87;22.47;;;;;;;;;;5036109;28;20413;-83
2022/08/23 04:52:35;;;;;;;23.10;21.80;;;;;;;;;;5036233;28;20450;-82
2022/08/23 04:55:03;;;;;;;23.53;22.13;;;;;;;;;;5018073;28;20521;-82
2022/08/23 04:57:31;;;;;;;24.23;22.73;;;;;;;;;;5035421;28;20824;-83
2022/08/23 04:59:59;;;;;;;24.03;22.47;;;;;;;;;;5035786;28;20512;-83
2022/08/23 05:02:26;;;;;;;23.50;21.90;;;;;;;;;;5035928;28;20470;-82
2022/08/23 05:04:54;;;;;;;23.40;21.90;;;;;;;;;;5035663;28;20816;-82
2022/08/23 05:07:23;;;;;;;24.70;23.10;;;;;;;;;;5035838;28;20875;-83
2022/08/23 05:09:50;;;;;;;23.60;22.10;;;;;;;;;;5036084;28;20442;-83
2022/08/23 05:12:18;;;;;;;23.43;21.83;;;;;;;;;;5035953;28;20417;-82
2022/08/23 05:14:45;;;;;;;23.43;22.00;;;;;;;;;;5014319;28;20500;-83
2022/08/23 05:17:12;;;;;;;24.33;22.53;;;;;;;;;;5015856;28;20429;-83
2022/08/23 05:19:40;;;;;;;24.30;22.67;;;;;;;;;;5015099;28;20486;-83
2022/08/23 05:22:07;;;;;;;24.43;22.63;;;;;;;;;;5015807;28;20422;-82
2022/08/23 05:24:36;;;;;;;25.37;23.83;;;;;;;;;;5015869;28;20443;-83
2022/08/23 05:27:03;;;;;;;24.23;22.53;;;;;;;;;;5015617;28;20447;-83
2022/08/23 05:29:31;;;;;;;25.33;23.30;;;;;;;;;;5014328;28;20413;-83
2022/08/23 05:31:58;;;;;;;24.40;23.00;;;;;;;;;;5014388;28;21007;-83
2022/08/23 05:34:26;;;;;;;24.97;23.40;;;;;;;;;;5015681;28;20525;-82
2022/08/23 05:36:53;;;;;;;24.57;22.97;;;;;;;;;;5015539;28;20458;-83
2022/08/23 05:39:20;;;;;;;23.00;21.43;;;;;;;;;;5015576;28;20491;-83
2022/08/23 05:41:49;;;;;;;22.70;21.30;;;;;;;;;;5015345;28;20905;-82
2022/08/23 05:44:17;;;;;;;23.97;22.50;;;;;;;;;;5015243;28;20402;-82
2022/08/23 05:46:44;;;;;;;23.90;22.40;;;;;;;;;;5015598;28;20433;-83
2022/08/23 05:49:11;;;;;;;23.90;22.50;;;;;;;;;;5015350;28;20443;-83
2022/08/23 05:51:40;;;;;;;23.77;22.47;;;;;;;;;;5015346;28;20443;-82
2022/08/23 05:54:09;;;;;;;24.30;22.33;;;;;;;;;;5014036;28;20446;-83
2022/08/23 05:56:41;;;;;;;24.13;22.63;;;;;;;;;;5014949;28;20466;-83
2022/08/23 05:59:12;;;;;;;22.73;21.33;;;;;;;;;;5015048;28;20508;-82
2022/08/23 06:01:40;;;;;;;23.43;21.77;;;;;;;;;;5015080;28;20447;-82
2022/08/23 06:04:08;;;;;;;23.13;21.83;;;;;;;;;;5014770;28;20804;-82
2022/08/23 06:06:36;;;;;;;24.17;22.47;;;;;;;;;;5015135;28;20443;-83
2022/08/23 06:09:04;;;;;;;23.53;22.00;;;;;;;;;;5014948;28;20439;-83
2022/08/23 06:11:32;;;;;;;22.60;21.20;;;;;;;;;;5014612;28;20412;-83
2022/08/23 06:14:00;;;;;;;23.30;21.70;;;;;;;;;;5014641;28;20429;-82
2022/08/23 06:16:30;;;;;;;23.60;22.20;;;;;;;;;;5032629;28;21002;-83
2022/08/23 06:18:57;;;;;;;23.23;21.77;;;;;;;;;;5034470;28;20487;-83
2022/08/23 06:21:25;;;;;;;453.98;369.58;;;;;;;;;;5034494;28;20470;-83
2022/08/23 06:23:53;;;;;;;403.13;361.30;;;;;;;;;;5034190;28;20192;-83
2022/08/23 06:26:21;;;;;;;431.70;304.17;;;;;;;;;;5033968;28;20443;-82
2022/08/23 06:28:49;;;;;;;22.73;21.40;;;;;;;;;;5034108;28;20818;-82
2022/08/23 06:31:44;;;;;;;23.03;21.83;;;;;;;;;;5033027;28;20458;-82
2022/08/23 06:34:06;;;;;;;443.63;352.05;;;;;;;;;;5033646;28;20450;-83
2022/08/23 06:36:35;;;;;;;463.03;416.13;;;;;;;;;;5034193;28;20203;-82
2022/08/23 06:39:02;;;;;;;450.63;398.77;;;;;;;;;;5033630;28;20531;-83
2022/08/23 06:41:30;;;;;;;426.67;379.97;;;;;;;;;;5034166;28;20439;-81
2022/08/23 06:43:57;;;;;;;24.03;22.17;;;;;;;;;;5033813;28;20853;-82
2022/08/23 06:46:26;;;;;;;23.47;21.87;;;;;;;;;;5033668;28;20443;-82
2022/08/23 06:48:54;;;;;;;23.10;21.70;;;;;;;;;;5033712;28;20884;-82
2022/08/23 06:51:24;;;;;;;22.30;20.77;;;;;;;;;;5033898;28;20410;-83
2022/08/23 06:53:53;;;;;;;23.30;21.60;;;;;;;;;;5033867;28;20446;-83
2022/08/23 06:56:21;;;;;;;23.43;21.83;;;;;;;;;;5033602;28;20472;-83
2022/08/23 06:58:49;;;;;;;23.40;21.90;;;;;;;;;;5033312;28;20545;-83
2022/08/23 07:01:20;;;;;;;22.60;21.27;;;;;;;;;;5033928;28;20497;-82
2022/08/23 07:03:48;;;;;;;24.57;23.00;;;;;;;;;;5033378;28;20418;-82
2022/08/23 07:06:15;;;;;;;24.10;22.27;;;;;;;;;;5033354;28;20440;-82
2022/08/23 07:08:44;;;;;;;23.87;22.10;;;;;;;;;;5033367;28;20439;-82
2022/08/23 07:11:12;;;;;;;23.80;22.30;;;;;;;;;;5033566;28;20455;-83
2022/08/23 07:13:39;;;;;;;24.10;22.60;;;;;;;;;;5033199;28;20843;-83
2022/08/23 07:16:07;;;;;;;24.10;22.60;;;;;;;;;;5033174;28;20830;-82
2022/08/23 07:18:35;;;;;;;24.07;22.37;;;;;;;;;;5033421;28;20487;-82
2022/08/23 07:21:03;;;;;;;23.17;21.77;;;;;;;;;;5033190;28;20924;-83
2022/08/23 07:23:32;;;;;;;25.10;23.30;;;;;;;;;;5033036;28;20494;-82
2022/08/23 07:26:01;;;;;;;24.47;22.87;;;;;;;;;;5033158;28;20471;-82
2022/08/23 07:28:28;;;;;;;23.07;21.67;;;;;;;;;;5033005;28;20751;-82
2022/08/23 07:30:57;;;;;;;23.80;22.40;;;;;;;;;;5033102;28;20414;-82
2022/08/23 07:33:25;;;;;;;23.60;22.10;;;;;;;;;;5033592;28;20440;-81
2022/08/23 07:35:52;;;;;;;24.23;22.70;;;;;;;;;;5033125;28;20509;-82
2022/08/23 07:38:20;;;;;;;24.10;22.70;;;;;;;;;;5033044;28;20485;-82
2022/08/23 07:40:48;;;;;;;23.20;21.77;;;;;;;;;;5032935;28;20410;-83
2022/08/23 07:43:16;;;;;;;24.53;23.03;;;;;;;;;;5015768;28;20411;-82
2022/08/23 07:45:44;;;;;;;24.67;23.07;;;;;;;;;;5033002;28;20422;-82
2022/08/23 07:48:11;;;;;;;24.07;22.63;;;;;;;;;;5032762;28;20932;-82
2022/08/23 07:50:39;;;;;;;25.40;23.80;;;;;;;;;;5033108;28;20500;-81
2022/08/23 07:53:07;;;;;;;24.10;22.70;;;;;;;;;;5033028;28;20474;-82
2022/08/23 07:55:34;;;;;;;24.50;23.03;;;;;;;;;;5032906;28;20443;-82
2022/08/23 07:58:01;;;;;;;24.17;22.57;;;;;;;;;;5032744;28;20497;-83
2022/08/23 08:00:30;;;;;;;23.60;22.30;;;;;;;;;;5032803;28;20486;-82
2022/08/23 08:02:57;;;;;;;23.90;22.30;;;;;;;;;;5015378;28;20778;-83
2022/08/23 08:05:25;;;;;;;24.33;22.80;;;;;;;;;;5032429;28;20410;-82
2022/08/23 08:07:52;;;;;;;25.07;23.07;;;;;;;;;;5032522;28;20413;-83
2022/08/23 08:10:20;;;;;;;24.17;22.80;;;;;;;;;;5032981;28;20440;-82
2022/08/23 08:12:47;;;;;;;24.63;23.13;;;;;;;;;;5032436;28;20432;-83
2022/08/23 08:15:14;;;;;;;24.80;23.30;;;;;;;;;;5032642;28;20454;-82
2022/08/23 08:17:43;;;;;;;24.50;23.00;;;;;;;;;;5032500;28;20458;-82
2022/08/23 08:20:11;;;;;;;24.60;23.03;;;;;;;;;;5032638;28;20469;-82
2022/08/23 08:22:38;;;;;;;26.10;24.07;;;;;;;;;;5032480;28;20436;-83
2022/08/23 08:25:06;;;;;;;23.43;22.03;;;;;;;;;;5014591;28;20501;-82
2022/08/23 08:27:33;;;;;;;24.10;22.70;;;;;;;;;;5032623;28;20418;-82
2022/08/23 08:30:01;;;;;;;23.13;21.77;;;;;;;;;;5014593;28;20972;-82
2022/08/23 08:32:28;;;;;;;25.13;23.33;;;;;;;;;;5015452;28;20415;-82
2022/08/23 08:34:57;;;;;;;23.93;22.33;;;;;;;;;;5032578;28;20433;-83
2022/08/23 08:37:24;;;;;;;23.67;22.23;;;;;;;;;;5032489;28;20439;-82
2022/08/23 08:39:53;;;;;;;24.90;23.40;;;;;;;;;;5032180;28;20490;-82
2022/08/23 08:42:25;;;;;;;24.90;23.50;;;;;;;;;;5032238;28;20436;-83
2022/08/23 08:44:53;;;;;;;24.50;23.00;;;;;;;;;;5032528;28;20445;-83
2022/08/23 08:47:30;;;;;;;24.20;22.80;;;;;;;;;;5032451;28;20813;-83
2022/08/23 08:50:01;;;;;;;24.90;23.40;;;;;;;;;;5032227;28;20402;-83
2022/08/23 08:52:30;;;;;;;24.00;22.60;;;;;;;;;;5032363;28;20407;-82
2022/08/23 08:55:02;;;;;;;24.73;23.33;;;;;;;;;;5036113;28;20435;-83
2022/08/23 08:57:33;;;;;;;23.70;22.20;;;;;;;;;;5017996;28;20993;-82
2022/08/23 09:00:01;;;;;;;24.47;23.07;;;;;;;;;;5035922;28;20490;-82
2022/08/23 09:02:31;;;;;;;23.40;21.90;;;;;;;;;;5035943;28;20440;-82
2022/08/23 09:05:01;;;;;;;24.40;23.00;;;;;;;;;;5036041;28;20448;-82
2022/08/23 09:07:32;;;;;;;24.77;23.17;;;;;;;;;;5035471;28;20900;-82
2022/08/23 09:10:11;;;;;;;25.70;24.00;;;;;;;;;;5035484;28;20488;-82
2022/08/23 09:12:44;;;;;;;24.47;22.93;;;;;;;;;;5017639;28;20451;-81
2022/08/23 09:15:17;;;;;;;24.67;23.13;;;;;;;;;;5035363;28;20475;-83
2022/08/23 09:17:45;;;;;;;24.40;22.93;;;;;;;;;;5035708;28;20830;-82
2022/08/23 09:20:15;;;;;;;25.27;23.37;;;;;;;;;;5035707;28;20455;-82
2022/08/23 09:22:44;;;;;;;23.70;22.07;;;;;;;;;;5035319;28;20443;-83
2022/08/23 09:25:12;;;;;;;22.93;21.53;;;;;;;;;;5035196;28;20411;-82
2022/08/23 09:27:42;;;;;;;23.97;22.47;;;;;;;;;;5035166;28;20444;-82
2022/08/23 09:30:10;;;;;;;23.73;22.23;;;;;;;;;;5035457;28;20452;-82
2022/08/23 09:32:40;;;;;;;23.57;22.23;;;;;;;;;;5035697;28;20482;-82
2022/08/23 09:35:12;;;;;;;24.43;22.97;;;;;;;;;;5035334;28;20505;-82
2022/08/23 09:38:02;;;;;;;23.87;22.33;;;;;;;;;;5035342;28;20411;-82
2022/08/23 09:40:32;;;;;;;23.87;22.07;;;;;;;;;;5035297;28;20474;-82
2022/08/23 09:43:03;;;;;;;22.70;21.40;;;;;;;;;;5034894;28;20423;-82
2022/08/23 09:45:32;;;;;;;23.20;21.80;;;;;;;;;;5035133;28;20460;-83
2022/08/23 09:48:00;;;;;;;23.20;21.70;;;;;;;;;;5034953;28;20426;-82
2022/08/23 09:50:29;;;;;;;24.10;22.50;;;;;;;;;;5034786;28;20418;-83
2022/08/23 09:52:59;;;;;;;23.70;22.30;;;;;;;;;;5016956;28;20522;-83
2022/08/23 09:55:28;;;;;;;24.10;22.50;;;;;;;;;;5034951;28;20482;-82
2022/08/23 09:57:56;;;;;;;24.40;22.80;;;;;;;;;;5034981;28;20455;-82
2022/08/23 10:00:26;;;;;;;23.53;21.90;;;;;;;;;;5034939;28;20578;-82
2022/08/23 10:02:56;;;;;;;24.03;22.60;;;;;;;;;;5034955;28;20418;-82
2022/08/23 10:05:30;;;;;;;23.63;22.13;;;;;;;;;;5034384;28;20410;-82
2022/08/23 10:07:59;;;;;;;23.57;22.00;;;;;;;;;;5034456;28;20523;-83
2022/08/23 10:10:29;;;;;;;23.07;21.77;;;;;;;;;;5034692;28;20450;-82
2022/08/23 10:12:57;;;;;;;22.60;21.10;;;;;;;;;;5034720;28;20439;-82
2022/08/23 10:15:33;;;;;;;25.47;23.50;;;;;;;;;;5034254;28;20455;-82
2022/08/23 10:18:03;;;;;;;26.03;24.37;;;;;;;;;;5034562;28;20417;-82
2022/08/23 10:20:35;;;;;;;25.00;23.50;;;;;;;;;;5034383;28;20481;-82
2022/08/23 10:23:10;;;;;;;25.17;23.67;;;;;;;;;;5034133;28;20941;-83
2022/08/23 10:25:40;;;;;;;24.60;23.10;;;;;;;;;;5034253;28;20431;-82
2022/08/23 10:31:01;;;;;;;27.33;25.00;;;;;;;;;;5034391;28;20427;-83
2022/08/23 10:33:33;;;;;;;27.10;25.60;;;;;;;;;;5034527;28;20468;-83
2022/08/23 10:36:04;;;;;;;26.57;24.97;;;;;;;;;;5034183;28;20850;-82
2022/08/23 10:38:51;;;;;;;25.53;23.93;;;;;;;;;;5033932;28;20924;-83
2022/08/23 10:41:23;;;;;;;25.37;23.60;;;;;;;;;;5033412;28;20492;-82
2022/08/23 10:43:58;;;;;;;25.87;24.37;;;;;;;;;;5034102;28;20541;-82
2022/08/23 10:46:28;;;;;;;24.80;23.13;;;;;;;;;;5033725;28;20421;-82
2022/08/23 10:48:58;;;;;;;25.80;24.30;;;;;;;;;;5033678;28;20449;-82
2022/08/23 10:51:28;;;;;;;25.40;23.90;;;;;;;;;;5033623;28;20514;-82
2022/08/23 10:53:59;;;;;;;26.13;24.53;;;;;;;;;;5033657;28;20449;-83
2022/08/23 10:56:28;;;;;;;25.77;24.30;;;;;;;;;;5033580;28;20865;-82
2022/08/23 10:58:57;;;;;;;24.77;23.27;;;;;;;;;;5033453;28;20478;-82
2022/08/23 11:01:26;;;;;;;25.27;23.67;;;;;;;;;;5033883;28;20545;-81
2022/08/23 11:04:01;;;;;;;25.90;23.63;;;;;;;;;;5033487;28;20886;-83
2022/08/23 11:06:44;;;;;;;24.97;23.47;;;;;;;;;;5033441;28;20545;-83
2022/08/23 11:09:27;;;;;;;25.70;24.30;;;;;;;;;;5031620;28;20436;-82
2022/08/23 11:12:08;;;;;;;24.93;23.23;;;;;;;;;;5033403;28;20949;-82
2022/08/23 11:14:38;;;;;;;25.43;23.93;;;;;;;;;;5033321;28;20459;-82
2022/08/23 11:17:07;;;;;;;24.87;23.43;;;;;;;;;;5033056;28;20410;-82
2022/08/23 11:19:48;;;;;;;25.90;24.30;;;;;;;;;;5032984;28;20580;-82
2022/08/23 11:22:16;;;;;;;26.30;24.70;;;;;;;;;;5033059;28;20794;-82
2022/08/23 11:24:53;;;;;;;24.83;23.30;;;;;;;;;;5033447;28;20491;-82
2022/08/23 11:27:41;;;;;;;25.90;24.40;;;;;;;;;;5033002;28;20423;-82
2022/08/23 11:30:35;;;;;;;24.77;23.13;;;;;;;;;;5033194;28;20416;-82
2022/08/23 11:33:09;;;;;;;24.67;23.10;;;;;;;;;;4971859;28;20434;-82
2022/08/23 11:35:42;;;;;;;24.97;23.50;;;;;;;;;;4971936;28;20426;-82
2022/08/23 11:38:09;;;;;;;25.10;23.60;;;;;;;;;;4971851;28;20822;-82
2022/08/23 11:40:38;;;;;;;25.30;23.90;;;;;;;;;;4971837;28;20482;-82
2022/08/23 11:43:11;;;;;;;24.50;22.70;;;;;;;;;;4971861;28;20454;-82
2022/08/23 11:45:45;;;;;;;26.50;25.00;;;;;;;;;;4971725;28;20456;-82
2022/08/23 11:48:18;;;;;;;25.63;24.13;;;;;;;;;;4971635;28;20455;-81
2022/08/23 11:50:53;;;;;;;25.53;24.03;;;;;;;;;;4971798;28;20449;-82
2022/08/23 11:53:29;;;;;;;25.60;24.10;;;;;;;;;;4971758;28;20891;-82
2022/08/23 11:56:05;;;;;;;24.80;23.30;;;;;;;;;;4971635;28;20537;-81
2022/08/23 11:58:46;;;;;;;24.90;23.40;;;;;;;;;;4971694;28;21032;-82
2022/08/23 12:01:14;;;;;;;26.97;25.20;;;;;;;;;;4971520;28;21012;-82
2022/08/23 12:03:53;;;;;;;25.67;24.10;;;;;;;;;;4956114;28;20411;-82
2022/08/23 12:06:44;;;;;;;26.50;24.90;;;;;;;;;;4971630;28;20916;-82
2022/08/23 12:09:13;;;;;;;24.70;23.20;;;;;;;;;;4997862;28;20440;-82
2022/08/23 12:12:07;;;;;;;25.53;24.03;;;;;;;;;;5032717;28;20440;-82
2022/08/23 12:14:48;;;;;;;26.00;24.40;;;;;;;;;;4990745;28;20499;-82
2022/08/23 12:17:30;;;;;;;25.60;24.10;;;;;;;;;;4990955;28;20469;-82
2022/08/23 12:19:59;;;;;;;26.07;24.30;;;;;;;;;;4990166;28;20545;-82
2022/08/23 12:22:29;;;;;;;25.27;23.67;;;;;;;;;;4991015;28;20418;-81
2022/08/23 12:24:59;;;;;;;25.90;24.20;;;;;;;;;;4990672;28;20424;-81
2022/08/23 12:27:28;;;;;;;26.13;24.40;;;;;;;;;;4990977;28;20489;-82
2022/08/23 12:30:01;;;;;;;25.43;23.83;;;;;;;;;;4994396;28;20443;-82
2022/08/23 12:32:32;;;;;;;24.57;22.97;;;;;;;;;;4994715;28;20416;-82
2022/08/23 12:35:12;;;;;;;25.83;24.03;;;;;;;;;;4994650;28;20404;-81
2022/08/23 12:37:44;;;;;;;24.43;23.03;;;;;;;;;;4994643;28;20433;-82
2022/08/23 12:40:14;;;;;;;25.20;23.50;;;;;;;;;;4994409;28;20501;-82
2022/08/23 12:42:42;;;;;;;24.50;22.70;;;;;;;;;;4994505;28;20434;-83
2022/08/23 12:45:13;;;;;;;25.40;23.70;;;;;;;;;;4994368;28;20436;-82
2022/08/23 12:47:42;;;;;;;24.80;23.30;;;;;;;;;;4994380;28;20455;-82
2022/08/23 12:50:19;;;;;;;24.97;23.47;;;;;;;;;;5011801;28;20432;-81
2022/08/23 12:52:55;;;;;;;25.53;24.03;;;;;;;;;;5036204;28;20880;-82
2022/08/23 12:55:23;;;;;;;26.00;24.33;;;;;;;;;;5035974;28;20493;-82
2022/08/23 12:57:53;;;;;;;25.10;23.33;;;;;;;;;;5035646;28;20863;-82
2022/08/23 13:00:23;;;;;;;25.80;24.20;;;;;;;;;;5017802;28;20505;-81
2022/08/23 13:02:53;;;;;;;24.67;23.17;;;;;;;;;;5035986;28;20418;-82
2022/08/23 13:05:26;;;;;;;24.73;23.20;;;;;;;;;;5035557;28;20441;-82
2022/08/23 13:07:54;;;;;;;25.23;23.63;;;;;;;;;;5035908;28;20897;-82
2022/08/23 13:10:21;;;;;;;24.63;23.03;;;;;;;;;;5035505;28;20792;-82
2022/08/23 13:12:49;;;;;;;24.70;23.00;;;;;;;;;;5035661;28;21164;-82
2022/08/23 13:15:31;;;;;;;25.53;23.83;;;;;;;;;;5035380;28;20528;-82
2022/08/23 13:18:01;;;;;;;24.63;23.23;;;;;;;;;;5034793;28;20425;-83
2022/08/23 13:20:28;;;;;;;25.00;23.50;;;;;;;;;;5035783;28;20899;-82
2022/08/23 13:22:57;;;;;;;23.73;22.30;;;;;;;;;;5035249;28;20425;-81
2022/08/23 13:25:26;;;;;;;24.87;23.47;;;;;;;;;;5017360;28;20429;-81
2022/08/23 13:27:55;;;;;;;25.17;23.50;;;;;;;;;;5018123;28;21128;-82
2022/08/23 13:30:23;;;;;;;26.07;24.47;;;;;;;;;;5035100;28;20925;-82
2022/08/23 13:32:51;;;;;;;25.57;23.87;;;;;;;;;;5035246;28;20451;-82
2022/08/23 13:35:37;;;;;;;26.50;24.87;;;;;;;;;;5035208;28;20447;-81
2022/08/23 13:38:10;;;;;;;25.07;23.47;;;;;;;;;;5035513;28;20442;-82
2022/08/23 13:40:42;;;;;;;25.73;24.03;;;;;;;;;;5034686;28;20458;-82
2022/08/23 13:43:11;;;;;;;25.80;24.20;;;;;;;;;;5035139;28;20422;-81
2022/08/23 13:45:46;;;;;;;25.03;23.43;;;;;;;;;;5034785;28;20415;-82
2022/08/23 13:48:14;;;;;;;25.97;24.27;;;;;;;;;;5035043;28;20417;-82
2022/08/23 13:50:44;;;;;;;25.50;23.90;;;;;;;;;;5017160;28;20448;-81
2022/08/23 13:53:11;;;;;;;25.80;24.07;;;;;;;;;;5034978;28;20444;-82
2022/08/23 13:55:41;;;;;;;25.03;23.33;;;;;;;;;;5034810;28;21058;-82
2022/08/23 13:58:10;;;;;;;25.83;24.20;;;;;;;;;;5034852;28;20454;-81
2022/08/23 14:00:37;;;;;;;25.43;23.77;;;;;;;;;;5017303;28;20466;-83
2022/08/23 14:03:06;;;;;;;26.27;24.57;;;;;;;;;;5034544;28;20467;-82
2022/08/23 14:05:34;;;;;;;25.60;24.10;;;;;;;;;;5034621;28;20539;-82
2022/08/23 14:08:03;;;;;;;25.43;23.73;;;;;;;;;;5034714;28;20499;-82
2022/08/23 14:10:31;;;;;;;25.33;23.73;;;;;;;;;;5034620;28;20433;-82
2022/08/23 14:12:59;;;;;;;25.80;24.10;;;;;;;;;;5034430;28;20526;-82
2022/08/23 14:15:26;;;;;;;24.43;22.90;;;;;;;;;;5034218;28;20462;-82
2022/08/23 14:17:54;;;;;;;25.10;23.50;;;;;;;;;;5034500;28;20411;-82
2022/08/23 14:20:23;;;;;;;24.87;23.07;;;;;;;;;;5034150;28;20440;-82
2022/08/23 14:22:51;;;;;;;25.80;24.30;;;;;;;;;;5034357;28;20541;-82
2022/08/23 14:25:20;;;;;;;25.67;23.93;;;;;;;;;;5033880;28;20896;-84
2022/08/23 14:27:48;;;;;;;25.80;24.10;;;;;;;;;;5033976;28;20908;-81
2022/08/23 14:30:22;;;;;;;24.53;23.13;;;;;;;;;;5033989;28;21156;-82
2022/08/23 14:32:50;;;;;;;24.80;23.10;;;;;;;;;;5033991;28;20415;-82
2022/08/23 14:35:17;;;;;;;24.30;22.90;;;;;;;;;;5034122;28;20895;-81
2022/08/23 14:37:44;;;;;;;24.47;22.97;;;;;;;;;;5033863;28;20440;-81
2022/08/23 14:40:12;;;;;;;24.97;23.33;;;;;;;;;;5033653;28;20421;-82